createdAt,value
2022-09-01T00:00:29.259Z,61.17
2022-09-01T00:04:00.640Z,61.11
2022-09-01T00:07:30.658Z,61.23
2022-09-01T00:10:57.647Z,61.49
2022-09-01T00:14:30.534Z,61.52
2022-09-01T00:17:58.100Z,61.53
2022-09-01T00:21:27.927Z,61.37
2022-09-01T00:24:55.242Z,61.43
2022-09-01T00:28:22.183Z,61.67
2022-09-01T00:31:56.248Z,61.84
2022-09-01T00:35:23.071Z,61.63
2022-09-01T00:38:50.524Z,61.97
2022-09-01T00:42:17.451Z,61.89
2022-09-01T00:45:45.050Z,61.88
2022-09-01T00:49:16.394Z,61.96
2022-09-01T00:52:47.442Z,62.23
2022-09-01T00:56:15.366Z,62.33
2022-09-01T00:59:50.458Z,62.38
2022-09-01T01:03:20.999Z,62.54
2022-09-01T01:06:58.919Z,62.41
2022-09-01T01:10:27.247Z,62.65
2022-09-01T01:13:57.852Z,62.51
2022-09-01T01:17:26.014Z,62.57
2022-09-01T01:21:18.255Z,62.52
2022-09-01T01:24:48.277Z,62.53
2022-09-01T01:28:19.052Z,62.62
2022-09-01T01:31:54.175Z,62.61
2022-09-01T01:35:25.372Z,62.68
2022-09-01T01:38:54.130Z,62.67
2022-09-01T01:42:21.754Z,62.72
2022-09-01T01:45:52.422Z,62.89
2022-09-01T01:49:24.690Z,62.90
2022-09-01T01:52:58.309Z,62.90
2022-09-01T01:56:28.352Z,62.91
2022-09-01T01:59:59.183Z,63.09
2022-09-01T02:03:38.782Z,63.31
2022-09-01T02:07:06.593Z,63.43
2022-09-01T02:10:36.369Z,63.49
2022-09-01T02:14:06.856Z,63.59
2022-09-01T02:17:34.223Z,63.81
2022-09-01T02:21:01.743Z,63.88
2022-09-01T02:24:32.016Z,63.93
2022-09-01T02:28:00.773Z,63.95
2022-09-01T02:31:30.323Z,63.98
2022-09-01T02:35:01.746Z,63.96
2022-09-01T02:38:33.971Z,63.82
2022-09-01T02:42:01.628Z,63.94
2022-09-01T02:45:29.898Z,63.98
2022-09-01T02:48:57.581Z,64.12
2022-09-01T02:52:25.159Z,64.06
2022-09-01T02:55:54.260Z,64.07
2022-09-01T02:59:24.076Z,64.09
2022-09-01T03:02:53.682Z,63.97
2022-09-01T03:06:24.710Z,63.86
2022-09-01T03:09:54.344Z,63.90
2022-09-01T03:13:24.062Z,64.01
2022-09-01T03:16:53.594Z,64.09
2022-09-01T03:20:22.369Z,64.38
2022-09-01T03:23:53.647Z,64.31
2022-09-01T03:27:21.141Z,64.16
2022-09-01T03:30:51.678Z,64.06
2022-09-01T03:34:23.908Z,64.11
2022-09-01T03:37:55.319Z,64.00
2022-09-01T03:41:25.301Z,64.20
2022-09-01T03:44:55.709Z,64.21
2022-09-01T03:48:25.278Z,64.41
2022-09-01T03:51:55.510Z,64.33
2022-09-01T03:55:27.419Z,64.59
2022-09-01T03:58:56.481Z,64.62
2022-09-01T04:02:30.822Z,64.70
2022-09-01T04:05:59.035Z,64.84
2022-09-01T04:09:28.654Z,64.86
2022-09-01T04:12:59.386Z,64.91
2022-09-01T04:16:46.604Z,65.06
2022-09-01T04:20:20.908Z,64.99
2022-09-01T04:23:49.285Z,65.13
2022-09-01T04:27:18.443Z,65.13
2022-09-01T04:30:47.177Z,65.14
2022-09-01T04:34:19.155Z,65.20
2022-09-01T04:37:47.868Z,65.30
2022-09-01T04:41:17.917Z,65.19
2022-09-01T04:44:47.114Z,65.45
2022-09-01T04:48:13.826Z,65.39
2022-09-01T04:51:53.087Z,65.37
2022-09-01T04:55:24.341Z,65.46
2022-09-01T04:58:51.570Z,65.64
2022-09-01T05:02:19.588Z,65.73
2022-09-01T05:05:47.781Z,65.82
2022-09-01T05:09:20.685Z,65.96
2022-09-01T05:13:17.932Z,66.19
2022-09-01T05:16:46.046Z,66.25
2022-09-01T05:20:14.164Z,66.49
2022-09-01T05:23:41.761Z,66.62
2022-09-01T05:27:10.731Z,66.79
2022-09-01T05:30:40.035Z,66.86
2022-09-01T05:34:10.734Z,66.77
2022-09-01T05:37:43.064Z,66.87
2022-09-01T05:41:16.796Z,66.82
2022-09-01T05:44:45.792Z,66.67
2022-09-01T05:48:24.398Z,66.74
2022-09-01T05:51:56.194Z,66.69
2022-09-01T05:55:27.956Z,66.73
2022-09-01T06:02:49.115Z,67.04
2022-09-01T06:06:22.202Z,66.95
2022-09-01T06:09:50.976Z,67.04
2022-09-01T06:13:22.062Z,66.67
2022-09-01T06:16:55.061Z,66.84
2022-09-01T06:20:23.225Z,66.83
2022-09-01T06:23:51.404Z,66.94
2022-09-01T06:27:27.649Z,66.77
2022-09-01T06:30:57.774Z,66.71
2022-09-01T06:34:29.997Z,66.80
2022-09-01T06:37:58.929Z,66.49
2022-09-01T06:41:40.493Z,66.38
2022-09-01T06:45:12.806Z,66.17
2022-09-01T06:48:46.921Z,66.01
2022-09-01T06:52:16.405Z,65.78
2022-09-01T06:55:43.840Z,65.67
2022-09-01T06:59:15.674Z,65.54
2022-09-01T07:02:45.886Z,65.55
2022-09-01T07:10:23.320Z,65.25
2022-09-01T07:17:48.969Z,64.89
2022-09-01T07:25:12.890Z,64.58
2022-09-01T07:29:06.044Z,64.46
2022-09-01T07:36:25.833Z,64.00
2022-09-01T07:39:56.349Z,63.84
2022-09-01T07:43:42.415Z,63.40
2022-09-01T07:51:37.232Z,62.77
2022-09-01T07:55:05.402Z,62.73
2022-09-01T07:58:33.972Z,62.69
2022-09-01T08:02:04.818Z,62.36
2022-09-01T08:05:34.845Z,62.12
2022-09-01T08:09:02.512Z,61.91
2022-09-01T08:12:32.984Z,61.92
2022-09-01T08:16:08.554Z,61.48
2022-09-01T08:19:36.536Z,61.30
2022-09-01T08:23:08.580Z,60.97
2022-09-01T08:26:38.838Z,60.70
2022-09-01T08:30:10.039Z,60.34
2022-09-01T08:33:37.629Z,60.26
2022-09-01T08:37:07.656Z,59.78
2022-09-01T08:40:36.386Z,59.78
2022-09-01T08:44:15.741Z,59.44
2022-09-01T08:48:04.705Z,59.25
2022-09-01T08:51:39.251Z,58.89
2022-09-01T08:55:14.182Z,58.88
2022-09-01T08:58:41.545Z,58.55
2022-09-01T09:02:47.919Z,58.34
2022-09-01T09:06:22.555Z,58.30
2022-09-01T09:09:59.616Z,58.19
2022-09-01T09:13:42.515Z,57.84
2022-09-01T09:17:11.616Z,57.60
2022-09-01T09:20:38.885Z,57.48
2022-09-01T09:24:21.696Z,57.44
2022-09-01T09:28:00.548Z,57.31
2022-09-01T09:31:37.842Z,57.18
2022-09-01T09:35:23.314Z,56.91
2022-09-01T09:39:04.872Z,56.79
2022-09-01T09:42:36.377Z,56.55
2022-09-01T09:46:25.194Z,56.36
2022-09-01T09:50:12.719Z,56.27
2022-09-01T09:53:39.600Z,56.04
2022-09-01T09:57:14.895Z,55.79
2022-09-01T10:01:01.219Z,55.64
2022-09-01T10:04:41.646Z,55.62
2022-09-01T10:08:11.944Z,55.34
2022-09-01T10:11:42.867Z,54.87
2022-09-01T10:15:14.187Z,54.91
2022-09-01T10:18:43.247Z,54.80
2022-09-01T10:22:15.764Z,54.65
2022-09-01T10:26:02.262Z,54.54
2022-09-01T10:29:47.505Z,54.42
2022-09-01T10:33:21.877Z,54.29
2022-09-01T10:36:55.842Z,54.24
2022-09-01T10:40:43.265Z,54.04
2022-09-01T10:44:20.564Z,53.87
2022-09-01T10:47:48.208Z,53.79
2022-09-01T10:51:56.426Z,53.68
2022-09-01T10:55:27.014Z,53.88
2022-09-01T11:03:42.006Z,53.62
2022-09-01T11:11:37.672Z,53.49
2022-09-01T11:15:32.968Z,53.24
2022-09-01T11:19:31.090Z,53.22
2022-09-01T11:23:09.260Z,52.89
2022-09-01T11:26:51.316Z,52.67
2022-09-01T11:30:21.254Z,52.67
2022-09-01T11:33:55.458Z,52.73
2022-09-01T11:37:27.571Z,52.48
2022-09-01T11:40:59.956Z,52.33
2022-09-01T11:44:33.277Z,52.20
2022-09-01T11:48:13.067Z,52.21
2022-09-01T11:51:47.503Z,52.16
2022-09-01T11:55:14.784Z,51.97
2022-09-01T11:58:43.561Z,52.29
2022-09-01T12:02:36.910Z,52.07
2022-09-01T12:06:09.074Z,51.62
2022-09-01T12:09:39.370Z,51.21
2022-09-01T12:13:12.246Z,51.02
2022-09-01T12:16:40.647Z,51.16
2022-09-01T12:20:31.442Z,51.54
2022-09-01T12:24:28.118Z,51.62
2022-09-01T12:28:00.914Z,51.10
2022-09-01T12:31:29.482Z,50.33
2022-09-01T12:35:19.571Z,49.96
2022-09-01T12:38:46.235Z,49.71
2022-09-01T12:42:26.031Z,49.52
2022-09-01T12:45:53.497Z,49.74
2022-09-01T12:49:28.457Z,49.73
2022-09-01T12:53:02.330Z,49.52
2022-09-01T12:56:34.480Z,49.77
2022-09-01T13:00:21.623Z,49.21
2022-09-01T13:04:12.135Z,48.53
2022-09-01T13:07:39.920Z,48.06
2022-09-01T13:11:12.794Z,48.31
2022-09-01T13:14:41.704Z,48.38
2022-09-01T13:18:11.661Z,48.31
2022-09-01T13:25:12.456Z,47.92
2022-09-01T13:28:40.901Z,47.97
2022-09-01T13:32:19.022Z,47.98
2022-09-01T13:35:47.530Z,48.46
2022-09-01T13:39:15.461Z,48.77
2022-09-01T13:42:43.412Z,48.87
2022-09-01T13:46:11.604Z,48.96
2022-09-01T13:50:04.694Z,49.15
2022-09-01T13:53:27.907Z,49.68
2022-09-01T13:56:55.341Z,49.77
2022-09-01T14:00:27.221Z,49.90
2022-09-01T14:03:58.294Z,50.21
2022-09-01T14:07:30.889Z,50.47
2022-09-01T14:10:58.484Z,50.57
2022-09-01T14:14:25.624Z,50.48
2022-09-01T14:17:56.461Z,50.35
2022-09-01T14:21:23.213Z,50.28
2022-09-01T14:24:50.287Z,49.95
2022-09-01T14:28:20.767Z,49.63
2022-09-01T14:31:48.858Z,49.49
2022-09-01T14:35:17.213Z,49.55
2022-09-01T14:38:44.476Z,49.08
2022-09-01T14:42:12.597Z,49.05
2022-09-01T14:45:40.043Z,49.01
2022-09-01T14:49:13.783Z,49.15
2022-09-01T14:52:41.931Z,48.99
2022-09-01T14:56:11.960Z,48.63
2022-09-01T15:00:06.386Z,48.48
2022-09-01T15:03:35.913Z,48.28
2022-09-01T15:07:07.173Z,48.13
2022-09-01T15:10:34.489Z,48.19
2022-09-01T15:14:01.198Z,48.14
2022-09-01T15:17:29.426Z,48.00
2022-09-01T15:20:57.951Z,48.06
2022-09-01T15:24:27.550Z,48.00
2022-09-01T15:27:55.462Z,47.84
2022-09-01T15:31:32.485Z,48.05
2022-09-01T15:34:59.894Z,48.20
2022-09-01T15:38:30.827Z,48.13
2022-09-01T15:41:58.274Z,48.25
2022-09-01T15:45:29.335Z,48.36
2022-09-01T15:48:58.815Z,48.40
2022-09-01T15:52:28.020Z,48.50
2022-09-01T15:55:55.607Z,48.51
2022-09-01T15:59:26.977Z,48.51
2022-09-01T16:02:57.940Z,48.73
2022-09-01T16:06:26.306Z,48.83
2022-09-01T16:09:58.260Z,48.97
2022-09-01T16:13:41.521Z,49.07
2022-09-01T16:17:15.065Z,49.19
2022-09-01T16:20:52.911Z,49.35
2022-09-01T16:24:23.617Z,49.39
2022-09-01T16:27:51.903Z,49.55
2022-09-01T16:31:25.577Z,49.75
2022-09-01T16:34:54.325Z,50.27
2022-09-01T16:38:40.549Z,50.26
2022-09-01T16:42:23.001Z,50.43
2022-09-01T16:46:02.148Z,50.61
2022-09-01T16:49:44.526Z,50.56
2022-09-01T16:53:24.707Z,50.70
2022-09-01T16:57:03.304Z,50.99
2022-09-01T17:00:40.048Z,51.01
2022-09-01T17:04:30.501Z,51.17
2022-09-01T17:08:10.521Z,51.32
2022-09-01T17:11:49.299Z,51.44
2022-09-01T17:15:26.722Z,51.53
2022-09-01T17:18:58.777Z,51.77
2022-09-01T17:22:27.782Z,51.83
2022-09-01T17:26:01.981Z,52.11
2022-09-01T17:29:35.045Z,52.46
2022-09-01T17:33:19.511Z,52.70
2022-09-01T17:36:57.172Z,52.87
2022-09-01T17:40:30.923Z,53.13
2022-09-01T17:44:13.721Z,53.39
2022-09-01T17:47:54.403Z,53.71
2022-09-01T17:51:31.369Z,53.95
2022-09-01T17:55:08.642Z,54.12
2022-09-01T17:58:50.510Z,54.29
2022-09-01T18:02:35.861Z,54.38
2022-09-01T18:06:10.789Z,54.52
2022-09-01T18:09:45.229Z,54.78
2022-09-01T18:13:36.161Z,54.87
2022-09-01T18:17:10.311Z,55.15
2022-09-01T18:20:45.576Z,55.32
2022-09-01T18:24:20.348Z,55.47
2022-09-01T18:27:53.760Z,55.50
2022-09-01T18:31:47.553Z,55.62
2022-09-01T18:35:31.843Z,55.77
2022-09-01T18:39:07.979Z,55.86
2022-09-01T18:42:46.953Z,56.01
2022-09-01T18:46:25.074Z,56.10
2022-09-01T18:50:04.330Z,56.15
2022-09-01T18:53:44.288Z,56.26
2022-09-01T18:57:19.361Z,56.40
2022-09-01T19:00:54.858Z,56.35
2022-09-01T19:04:28.779Z,56.53
2022-09-01T19:08:03.731Z,56.60
2022-09-01T19:11:43.779Z,56.68
2022-09-01T19:15:20.560Z,56.70
2022-09-01T19:19:01.047Z,56.75
2022-09-01T19:22:42.117Z,56.83
2022-09-01T19:26:16.750Z,56.85
2022-09-01T19:29:54.042Z,56.99
2022-09-01T19:33:28.280Z,56.99
2022-09-01T19:37:00.131Z,57.09
2022-09-01T19:44:18.019Z,57.11
2022-09-01T19:47:58.342Z,57.03
2022-09-01T19:51:34.486Z,57.15
2022-09-01T19:55:07.414Z,57.23
2022-09-01T19:58:48.527Z,57.09
2022-09-01T20:02:26.172Z,57.30
2022-09-01T20:06:02.292Z,57.25
2022-09-01T20:09:38.684Z,57.51
2022-09-01T20:13:25.500Z,57.52
2022-09-01T20:16:56.910Z,57.58
2022-09-01T20:20:30.948Z,57.69
2022-09-01T20:24:01.173Z,57.99
2022-09-01T20:27:37.665Z,57.92
2022-09-01T20:31:16.423Z,58.13
2022-09-01T20:34:53.329Z,57.97
2022-09-01T20:38:54.522Z,58.13
2022-09-01T20:42:31.513Z,58.29
2022-09-01T20:45:58.440Z,58.56
2022-09-01T20:49:26.032Z,58.28
2022-09-01T20:53:08.352Z,58.34
2022-09-01T20:56:51.121Z,58.38
2022-09-01T21:00:26.158Z,58.72
2022-09-01T21:04:09.295Z,58.64
2022-09-01T21:07:43.467Z,59.00
2022-09-01T21:11:24.147Z,58.93
2022-09-01T21:15:05.453Z,58.69
2022-09-01T21:19:05.001Z,58.74
2022-09-01T21:22:35.888Z,58.58
2022-09-01T21:26:03.459Z,58.83
2022-09-01T21:30:00.018Z,58.85
2022-09-01T21:33:31.106Z,58.89
2022-09-01T21:36:58.274Z,59.13
2022-09-01T21:40:26.899Z,59.09
2022-09-01T21:43:54.377Z,59.00
2022-09-01T21:47:27.095Z,59.11
2022-09-01T21:50:54.428Z,59.07
2022-09-01T21:54:21.868Z,59.26
2022-09-01T21:57:49.116Z,59.44
2022-09-01T22:01:16.032Z,59.39
2022-09-01T22:04:43.360Z,59.56
2022-09-01T22:08:12.469Z,59.70
2022-09-01T22:11:41.046Z,59.68
2022-09-01T22:15:11.748Z,59.40
2022-09-01T22:18:39.664Z,59.62
2022-09-01T22:22:07.500Z,59.57
2022-09-01T22:25:37.135Z,59.72
2022-09-01T22:29:07.802Z,59.88
2022-09-01T22:32:36.404Z,60.03
2022-09-01T22:36:02.958Z,59.98
2022-09-01T22:39:30.907Z,59.79
2022-09-01T22:42:58.069Z,59.97
2022-09-01T22:46:25.185Z,60.00
2022-09-01T22:49:52.385Z,60.06
2022-09-01T22:53:22.007Z,60.34
2022-09-01T22:56:50.134Z,60.49
2022-09-01T23:00:18.794Z,60.35
2022-09-01T23:03:46.079Z,60.43
2022-09-01T23:07:13.484Z,60.61
2022-09-01T23:10:41.222Z,60.50
2022-09-01T23:14:08.238Z,60.41
2022-09-01T23:17:36.969Z,60.39
2022-09-01T23:21:05.631Z,60.47
2022-09-01T23:24:32.777Z,60.65
2022-09-01T23:27:59.722Z,60.56
2022-09-01T23:31:29.162Z,60.72
2022-09-01T23:34:56.720Z,60.80
2022-09-01T23:38:25.796Z,60.71
2022-09-01T23:41:53.198Z,60.77
2022-09-01T23:45:20.663Z,60.83
2022-09-01T23:48:48.086Z,60.95
2022-09-01T23:52:17.497Z,61.05
2022-09-01T23:55:49.626Z,60.99
2022-09-01T23:59:27.173Z,61.22
